메인 페이지
METAR-TAF:

METAR-TAF

공항 :

Altus Air Force Base

Altus, 오클라호마, 미국

위도: 34-39N, 경도: 099-16W, 고도: 420m

현재 날씨관측

예보는 23분 전, 00:56시(UTC)에 발표되었습니다.
남동6kt
온도 40°C
습도 18%
기압 1012 hPa
시정: 16.1km
맑음

METAR: KLTS 220056Z AUTO 13006KT 10SM CLR 40/11 A2988 RMK AO2 SLP098 T03970109 $

시각: 20:19 (01:19 UTC)

예보

예보는 17 시간 54분 전, 07:25시(UTC)에 발표되었습니다.
예보 대상 시간: 21일 07시부터 22일 07시까지 (UTC)
9kt
시정 10km 이상
맑음
전환 중
21일 14시부터 21일 15시까지 (UTC)
서남서12kt, 순간 최대 풍속 18kt
시정 10km 이상
고도 15000ft 상공 구름 조금
전환 중
22일 02시부터 22일 03시까지 (UTC)
남서9kt
시정: 2309m
맑음

TAF: KLTS 210725Z 2107/2207 19009KT 9999 SKC QNH2977INS BECMG 2114/2115 24012G18KT 9999 FEW150 QNH2982INS BECMG 2202/2203 22009KT 9999 SKC QNH2986INS TX45/2122Z TN25/2112Z LAST NO AMDS AFT 2107 NEXT 2309

4,000개 이상의 공항 관측 자료 및 예보 (METAR 및 TAF 보고).

지도상에서 검색 가능한 기상관측소가 노란 점과 빨간 점으로 표시되어 있습니다.

기상관측소 명을 보려면 표시 위로 마우스를 이동하세요.

날씨 관측과 예보를 보려면 클릭하세요.

지도 변경 : 확대하려면 엑스 표시가 있는 녹색 버튼, 축소하려면 빼기 표시가 있는 녹색 버튼, 다음 페이지의 지도를 보려면 녹색 화살표를 클릭하세요.


METAR-TAF: